Terminal Aerodrome Forecast
Issued by NWS

Home | Current Version | Previous Version | Text Only | Print | Product List | Glossary Off
Versions: 1 2 3 4 5 6 7 8 9 10 11 12 13 14 15 16 17 18 19

000
FTUS43 KBIS 281400 AAA
TAFJMS
TAF AMD
KJMS 281435Z 2815/2912 02011KT P6SM SCT010 BKN015 OVC025
      TEMPO 2816/2820 SCT015 OVC025
     FM282000 02015G20KT P6SM VCSH BKN015 OVC025
     FM290200 02015KT 5SM BR VCSH BKN012 OVC020
     FM290700 06010KT 3SM BR OVC010=

USA.gov is the U.S. government's official web portal to all federal, state and local government web resources and services.